X  CloseMetar Aviation Weather Data     EBBR Brussels

Temperature

18°C Temperature

10°C Dewpoint

60% Humidity



Wind

 2 KM/H

 1 MPH

 0 M/S

 1 KTS



Calm
Due North
Current Conditions

Mostly Cloudy Mostly Cloudy
Pressure 1019.92 (hPa) - 30.12 (in)
Visibility 6.2 (mi) - 10 (km)
Airport
Airport-code EBBR

Location Brussels 14 (km)

Metar:
EBBR 161150Z VRB01KT 9999 BKN031 18/10 Q1020 NOSIG

Time: 16-07-2019 13:50